createdAt,value
2022-11-16T00:02:13.621Z,65.52
2022-11-16T00:04:40.583Z,65.43
2022-11-16T00:07:07.926Z,65.37
2022-11-16T00:09:35.031Z,64.44
2022-11-16T00:12:04.824Z,64.42
2022-11-16T00:14:34.061Z,65.49
2022-11-16T00:17:01.221Z,65.03
2022-11-16T00:19:28.486Z,66.06
2022-11-16T00:21:55.164Z,66.43
2022-11-16T00:24:23.520Z,65.67
2022-11-16T00:26:50.910Z,65.25
2022-11-16T00:29:20.746Z,64.76
2022-11-16T00:31:48.176Z,63.89
2022-11-16T00:34:15.570Z,62.85
2022-11-16T00:36:42.199Z,63.42
2022-11-16T00:39:12.205Z,63.53
2022-11-16T00:41:39.013Z,65.04
2022-11-16T00:44:05.798Z,64.79
2022-11-16T00:46:32.780Z,64.99
2022-11-16T00:48:59.506Z,65.37
2022-11-16T00:51:26.093Z,63.93
2022-11-16T00:53:52.675Z,65.70
2022-11-16T00:56:19.282Z,65.81
2022-11-16T00:58:45.868Z,64.45
2022-11-16T01:01:12.754Z,64.51
2022-11-16T01:03:39.829Z,66.53
2022-11-16T01:06:12.755Z,66.94
2022-11-16T01:08:40.909Z,66.88
2022-11-16T01:11:26.821Z,66.88
2022-11-16T01:13:54.123Z,65.93
2022-11-16T01:16:22.212Z,66.55
2022-11-16T01:18:50.945Z,65.80
2022-11-16T01:21:18.834Z,64.50
2022-11-16T01:23:45.912Z,63.81
2022-11-16T01:26:12.682Z,64.44
2022-11-16T01:28:39.292Z,65.30
2022-11-16T01:31:06.095Z,66.38
2022-11-16T01:33:32.712Z,65.57
2022-11-16T01:35:59.293Z,66.90
2022-11-16T01:38:29.607Z,67.52
2022-11-16T01:40:56.658Z,66.77
2022-11-16T01:43:25.491Z,66.40
2022-11-16T01:45:52.589Z,66.08
2022-11-16T01:48:30.350Z,64.94
2022-11-16T01:50:57.953Z,64.19
2022-11-16T01:53:24.982Z,63.91
2022-11-16T01:55:52.440Z,63.93
2022-11-16T01:58:23.191Z,63.41
2022-11-16T02:00:50.662Z,63.34
2022-11-16T02:03:19.078Z,63.11
2022-11-16T02:05:51.739Z,62.68
2022-11-16T02:08:55.525Z,62.81
2022-11-16T02:11:27.933Z,62.38
2022-11-16T02:14:31.071Z,61.98
2022-11-16T02:17:28.281Z,63.66
2022-11-16T02:20:33.864Z,63.77
2022-11-16T02:23:23.670Z,63.38
2022-11-16T02:26:11.983Z,63.52
2022-11-16T02:28:56.750Z,63.75
2022-11-16T02:31:28.221Z,63.19
2022-11-16T02:33:57.061Z,62.98
2022-11-16T02:36:25.631Z,63.78
2022-11-16T02:39:04.182Z,64.24
2022-11-16T02:41:35.578Z,65.50
2022-11-16T02:44:08.239Z,65.50
2022-11-16T02:46:41.853Z,66.43
2022-11-16T02:49:12.667Z,67.41
2022-11-16T02:51:40.218Z,66.89
2022-11-16T02:54:14.685Z,67.06
2022-11-16T02:57:03.095Z,68.25
2022-11-16T02:59:36.668Z,67.69
2022-11-16T03:02:11.038Z,68.01
2022-11-16T03:04:49.022Z,68.79
2022-11-16T03:07:20.539Z,68.71
2022-11-16T03:09:50.169Z,67.95
2022-11-16T03:12:24.070Z,66.21
2022-11-16T03:14:54.421Z,66.43
2022-11-16T03:17:28.223Z,65.97
2022-11-16T03:20:20.726Z,65.54
2022-11-16T03:23:13.933Z,66.73
2022-11-16T03:25:47.290Z,68.00
2022-11-16T03:28:17.781Z,67.85
2022-11-16T03:30:52.801Z,67.73
2022-11-16T03:33:25.714Z,66.81
2022-11-16T03:36:11.618Z,67.04
2022-11-16T03:38:41.197Z,66.24
2022-11-16T03:41:10.043Z,66.65
2022-11-16T03:43:39.063Z,65.99
2022-11-16T03:46:06.272Z,66.23
2022-11-16T03:48:37.597Z,67.91
2022-11-16T03:51:05.318Z,67.14
2022-11-16T03:53:32.024Z,65.78
2022-11-16T03:55:58.649Z,65.16
2022-11-16T03:58:25.317Z,65.65
2022-11-16T04:00:52.888Z,66.52
2022-11-16T04:03:19.953Z,67.15
2022-11-16T04:06:06.874Z,68.15
2022-11-16T04:08:52.288Z,67.79
2022-11-16T04:11:40.061Z,66.96
2022-11-16T04:14:33.308Z,66.75
2022-11-16T04:17:18.110Z,66.22
2022-11-16T04:20:03.349Z,66.01
2022-11-16T04:22:56.421Z,64.67
2022-11-16T04:25:30.396Z,65.15
2022-11-16T04:28:16.684Z,64.53
2022-11-16T04:31:07.948Z,64.69
2022-11-16T04:33:53.452Z,64.80
2022-11-16T04:36:38.505Z,64.11
2022-11-16T04:39:05.279Z,63.79
2022-11-16T04:41:50.751Z,64.91
2022-11-16T04:44:17.738Z,63.86
2022-11-16T04:47:03.138Z,65.37
2022-11-16T04:49:29.775Z,64.66
2022-11-16T04:51:56.507Z,64.01
2022-11-16T04:54:23.104Z,64.20
2022-11-16T04:56:49.767Z,64.33
2022-11-16T04:59:16.393Z,63.97
2022-11-16T05:02:01.656Z,64.13
2022-11-16T05:04:28.260Z,63.68
2022-11-16T05:06:54.933Z,63.29
2022-11-16T05:09:21.622Z,63.17
2022-11-16T05:11:48.281Z,62.98
2022-11-16T05:14:14.945Z,63.45
2022-11-16T05:16:41.710Z,63.21
2022-11-16T05:19:27.124Z,63.37
2022-11-16T05:21:53.769Z,63.41
2022-11-16T05:24:35.561Z,63.76
2022-11-16T05:27:08.429Z,62.99
2022-11-16T05:29:35.574Z,62.62
2022-11-16T05:32:02.755Z,62.91
2022-11-16T05:34:29.421Z,63.20
2022-11-16T05:36:56.834Z,62.84
2022-11-16T05:39:23.641Z,62.49
2022-11-16T05:41:50.933Z,62.75
2022-11-16T05:44:17.926Z,62.94
2022-11-16T05:46:45.242Z,64.26
2022-11-16T05:49:12.799Z,66.83
2022-11-16T05:51:41.351Z,64.73
2022-11-16T05:54:08.428Z,64.37
2022-11-16T05:56:35.351Z,64.70
2022-11-16T05:59:02.348Z,65.76
2022-11-16T06:01:29.115Z,65.27
2022-11-16T06:03:55.765Z,65.49
2022-11-16T06:06:22.483Z,66.19
2022-11-16T06:08:49.135Z,65.16
2022-11-16T06:11:15.753Z,65.06
2022-11-16T06:13:42.386Z,65.42
2022-11-16T06:16:09.587Z,66.58
2022-11-16T06:18:41.582Z,67.08
2022-11-16T06:21:09.519Z,67.09
2022-11-16T06:23:36.430Z,67.28
2022-11-16T06:26:03.864Z,67.59
2022-11-16T06:28:30.610Z,67.40
2022-11-16T06:30:57.351Z,67.51
2022-11-16T06:33:24.102Z,66.99
2022-11-16T06:35:50.871Z,66.97
2022-11-16T06:38:20.716Z,67.68
2022-11-16T06:40:52.271Z,67.89
2022-11-16T06:43:19.838Z,68.23
2022-11-16T06:45:50.816Z,67.90
2022-11-16T06:48:18.738Z,67.51
2022-11-16T06:50:47.014Z,67.62
2022-11-16T06:53:13.613Z,67.68
2022-11-16T06:55:40.213Z,69.10
2022-11-16T06:58:06.879Z,71.68
2022-11-16T07:00:33.909Z,72.32
2022-11-16T07:03:03.443Z,71.16
2022-11-16T07:05:31.199Z,72.78
2022-11-16T07:07:58.337Z,75.20
2022-11-16T07:10:25.565Z,76.51
2022-11-16T07:12:52.147Z,73.29
2022-11-16T07:15:19.558Z,70.65
2022-11-16T07:17:46.273Z,69.45
2022-11-16T07:20:13.179Z,68.88
2022-11-16T07:22:39.762Z,68.30
2022-11-16T07:25:07.092Z,68.24
2022-11-16T07:27:33.733Z,68.57
2022-11-16T07:30:02.223Z,69.69
2022-11-16T07:32:31.076Z,69.98
2022-11-16T07:34:59.368Z,68.23
2022-11-16T07:37:26.499Z,68.60
2022-11-16T07:39:53.165Z,70.77
2022-11-16T07:42:19.937Z,69.88
2022-11-16T07:44:46.531Z,68.86
2022-11-16T07:47:13.236Z,69.96
2022-11-16T07:49:39.826Z,70.17
2022-11-16T07:52:09.393Z,68.93
2022-11-16T07:54:36.984Z,68.10
2022-11-16T07:57:03.741Z,68.82
2022-11-16T07:59:30.316Z,69.11
2022-11-16T08:01:57.257Z,68.93
2022-11-16T08:04:23.865Z,68.26
2022-11-16T08:06:51.849Z,68.19
2022-11-16T08:09:18.823Z,67.73
2022-11-16T08:11:47.121Z,66.87
2022-11-16T08:14:14.104Z,67.47
2022-11-16T08:16:40.741Z,67.48
2022-11-16T08:19:07.329Z,67.39
2022-11-16T08:21:34.003Z,67.65
2022-11-16T08:24:00.562Z,66.88
2022-11-16T08:26:27.807Z,67.92
2022-11-16T08:28:56.569Z,67.90
2022-11-16T08:31:26.733Z,67.41
2022-11-16T08:33:53.760Z,67.18
2022-11-16T08:36:20.707Z,67.60
2022-11-16T08:38:48.784Z,67.66
2022-11-16T08:41:16.596Z,67.04
2022-11-16T08:43:44.693Z,67.61
2022-11-16T08:46:11.617Z,67.95
2022-11-16T08:48:38.586Z,67.30
2022-11-16T08:51:22.529Z,67.31
2022-11-16T08:53:50.134Z,66.75
2022-11-16T08:56:18.753Z,66.99
2022-11-16T08:58:52.459Z,69.48
2022-11-16T09:01:24.289Z,68.25
2022-11-16T09:03:51.984Z,69.26
2022-11-16T09:06:19.116Z,67.97
2022-11-16T09:08:46.721Z,68.58
2022-11-16T09:11:16.256Z,68.26
2022-11-16T09:13:44.332Z,67.80
2022-11-16T09:16:11.389Z,66.91
2022-11-16T09:18:38.302Z,67.96
2022-11-16T09:21:05.103Z,67.37
2022-11-16T09:23:31.865Z,67.58
2022-11-16T09:26:02.329Z,69.71
2022-11-16T09:28:29.357Z,69.58
2022-11-16T09:31:00.919Z,69.10
2022-11-16T09:33:30.065Z,68.70
2022-11-16T09:36:01.338Z,67.65
2022-11-16T09:38:40.697Z,68.20
2022-11-16T09:41:26.287Z,67.82
2022-11-16T09:43:55.720Z,67.68
2022-11-16T09:46:49.196Z,67.75
2022-11-16T09:49:35.962Z,67.54
2022-11-16T09:52:08.295Z,67.29
2022-11-16T09:54:39.906Z,67.84
2022-11-16T09:57:12.598Z,68.08
2022-11-16T09:59:52.192Z,67.75
2022-11-16T10:02:18.717Z,70.20
2022-11-16T10:04:58.119Z,69.56
2022-11-16T10:07:37.239Z,68.26
2022-11-16T10:10:04.169Z,67.77
2022-11-16T10:12:43.689Z,67.03
2022-11-16T10:15:16.025Z,66.72
2022-11-16T10:18:29.906Z,66.67
2022-11-16T10:21:03.638Z,67.34
2022-11-16T10:23:54.673Z,67.50
2022-11-16T10:26:41.037Z,67.88
2022-11-16T10:29:46.557Z,68.05
2022-11-16T10:32:28.098Z,68.30
2022-11-16T10:35:03.481Z,67.63
2022-11-16T10:37:32.683Z,68.13
2022-11-16T10:39:59.384Z,68.17
2022-11-16T10:42:37.258Z,68.07
2022-11-16T10:45:28.885Z,68.70
2022-11-16T10:48:06.294Z,68.44
2022-11-16T10:50:35.910Z,68.81
2022-11-16T10:53:02.490Z,68.84
2022-11-16T10:55:29.469Z,68.17
2022-11-16T10:57:59.874Z,68.06
2022-11-16T11:00:36.618Z,68.08
2022-11-16T11:03:03.364Z,67.84
2022-11-16T11:05:30.779Z,68.27
2022-11-16T11:08:03.552Z,68.44
2022-11-16T11:10:36.744Z,68.21
2022-11-16T11:13:06.054Z,67.97
2022-11-16T11:15:32.921Z,68.04
2022-11-16T11:18:23.799Z,68.01
2022-11-16T11:20:58.077Z,67.48
2022-11-16T11:23:26.327Z,67.69
2022-11-16T11:25:58.570Z,67.60
2022-11-16T11:28:36.709Z,67.13
2022-11-16T11:31:11.709Z,67.17
2022-11-16T11:33:43.053Z,67.53
2022-11-16T11:36:09.992Z,68.60
2022-11-16T11:39:00.265Z,68.14
2022-11-16T11:41:49.075Z,70.01
2022-11-16T11:44:17.797Z,70.24
2022-11-16T11:49:49.911Z,73.20
2022-11-16T11:53:00.766Z,76.00
2022-11-16T11:55:27.591Z,78.66
2022-11-16T11:57:55.214Z,78.79
2022-11-16T12:00:22.742Z,77.09
2022-11-16T12:03:07.777Z,79.75
2022-11-16T12:05:46.258Z,79.80
2022-11-16T12:08:14.783Z,79.32
2022-11-16T12:11:16.776Z,79.65
2022-11-16T12:13:57.888Z,78.22
2022-11-16T12:16:24.405Z,75.68
2022-11-16T12:19:04.769Z,74.27
2022-11-16T12:21:49.524Z,73.49
2022-11-16T12:24:54.562Z,72.82
2022-11-16T12:27:39.976Z,71.97
2022-11-16T12:30:17.887Z,71.76
2022-11-16T12:33:13.638Z,72.02
2022-11-16T12:35:54.331Z,71.88
2022-11-16T12:38:43.229Z,73.34
2022-11-16T12:41:44.875Z,73.55
2022-11-16T12:44:17.296Z,73.00
2022-11-16T12:46:52.797Z,75.17
2022-11-16T12:49:25.105Z,75.88
2022-11-16T12:52:00.384Z,76.49
2022-11-16T12:55:04.234Z,76.76
2022-11-16T12:57:44.329Z,76.79
2022-11-16T13:00:16.641Z,77.28
2022-11-16T13:03:12.314Z,77.46
2022-11-16T13:06:05.611Z,76.54
2022-11-16T13:09:16.606Z,76.54
2022-11-16T13:11:52.208Z,75.95
2022-11-16T13:14:38.940Z,76.56
2022-11-16T13:17:07.554Z,76.53
2022-11-16T13:19:39.641Z,77.39
2022-11-16T13:22:19.781Z,77.24
2022-11-16T13:25:06.261Z,75.93
2022-11-16T13:27:58.478Z,76.45
2022-11-16T13:30:33.610Z,77.18
2022-11-16T13:33:27.073Z,78.00
2022-11-16T13:35:53.696Z,77.98
2022-11-16T13:38:52.524Z,77.99
2022-11-16T13:41:43.652Z,77.74
2022-11-16T13:44:20.450Z,77.33
2022-11-16T13:46:58.179Z,77.54
2022-11-16T13:49:49.778Z,77.01
2022-11-16T13:52:23.543Z,76.62
2022-11-16T13:54:54.435Z,77.48
2022-11-16T13:57:26.173Z,77.36
2022-11-16T14:00:01.692Z,77.23
2022-11-16T14:02:45.586Z,77.17
2022-11-16T14:05:12.111Z,76.85
2022-11-16T14:07:47.394Z,77.44
2022-11-16T14:10:49.099Z,76.49
2022-11-16T14:13:45.704Z,75.33
2022-11-16T14:16:15.137Z,75.08
2022-11-16T14:18:42.938Z,74.27
2022-11-16T14:21:32.460Z,73.84
2022-11-16T14:24:28.356Z,74.18
2022-11-16T14:27:06.397Z,74.03
2022-11-16T14:29:51.207Z,73.21
2022-11-16T14:32:22.583Z,72.59
2022-11-16T14:34:52.193Z,73.01
2022-11-16T14:37:21.807Z,72.62
2022-11-16T14:39:50.444Z,72.57
2022-11-16T14:42:18.298Z,71.76
2022-11-16T14:44:45.151Z,71.35
2022-11-16T14:47:24.821Z,71.71
2022-11-16T14:49:52.485Z,72.26
2022-11-16T14:52:26.646Z,71.71
2022-11-16T14:55:00.666Z,72.36
2022-11-16T14:57:27.323Z,72.26
2022-11-16T15:00:22.656Z,71.51
2022-11-16T15:02:59.157Z,70.88
2022-11-16T15:05:35.537Z,70.30
2022-11-16T15:08:13.579Z,71.18
2022-11-16T15:10:49.540Z,71.23
2022-11-16T15:13:24.288Z,70.77
2022-11-16T15:16:15.021Z,70.35
2022-11-16T15:18:41.863Z,70.43
2022-11-16T15:21:22.538Z,70.26
2022-11-16T15:24:15.520Z,70.02
2022-11-16T15:26:38.652Z,70.05
2022-11-16T15:29:05.284Z,69.82
2022-11-16T15:31:31.884Z,69.82
2022-11-16T15:33:58.482Z,69.51
2022-11-16T15:36:41.334Z,69.27
2022-11-16T15:39:23.694Z,69.42
2022-11-16T15:41:51.872Z,69.48
2022-11-16T15:44:21.608Z,69.41
2022-11-16T15:46:53.205Z,69.27
2022-11-16T15:49:53.183Z,68.89
2022-11-16T15:52:42.526Z,69.10
2022-11-16T15:55:21.381Z,69.71
2022-11-16T15:58:02.590Z,69.32
2022-11-16T16:00:31.705Z,68.87
2022-11-16T16:03:05.204Z,68.96
2022-11-16T16:05:39.788Z,68.91
2022-11-16T16:08:24.133Z,68.55
2022-11-16T16:11:12.054Z,68.91
2022-11-16T16:13:41.845Z,68.59
2022-11-16T16:16:28.036Z,68.82
2022-11-16T16:18:58.275Z,68.36
2022-11-16T16:21:28.584Z,68.76
2022-11-16T16:23:56.645Z,68.44
2022-11-16T16:26:23.829Z,68.58
2022-11-16T16:28:51.077Z,68.48
2022-11-16T16:31:19.237Z,68.41
2022-11-16T16:33:46.430Z,67.96
2022-11-16T16:36:13.795Z,67.99
2022-11-16T16:38:40.405Z,67.95
2022-11-16T16:41:07.678Z,68.13
2022-11-16T16:43:34.852Z,67.95
2022-11-16T16:46:03.949Z,68.04
2022-11-16T16:48:30.735Z,68.38
2022-11-16T16:50:57.444Z,68.27
2022-11-16T16:53:24.133Z,67.90
2022-11-16T16:55:50.753Z,68.18
2022-11-16T16:58:17.579Z,68.53
2022-11-16T17:00:44.349Z,68.16
2022-11-16T17:03:11.233Z,67.76
2022-11-16T17:05:38.082Z,67.99
2022-11-16T17:08:04.936Z,67.79
2022-11-16T17:10:31.544Z,67.75
2022-11-16T17:12:58.746Z,67.88
2022-11-16T17:15:25.356Z,67.90
2022-11-16T17:17:52.066Z,67.74
2022-11-16T17:20:18.677Z,67.79
2022-11-16T17:22:46.025Z,68.11
2022-11-16T17:25:12.747Z,68.36
2022-11-16T17:27:39.410Z,68.21
2022-11-16T17:30:07.320Z,68.16
2022-11-16T17:32:33.901Z,68.10
2022-11-16T17:35:00.477Z,68.13
2022-11-16T17:37:27.058Z,68.33
2022-11-16T17:39:53.653Z,68.17
2022-11-16T17:42:20.320Z,68.15
2022-11-16T17:44:46.899Z,68.28
2022-11-16T17:47:13.554Z,68.18
2022-11-16T17:49:40.216Z,68.31
2022-11-16T17:52:07.423Z,69.14
2022-11-16T17:54:34.090Z,68.20
2022-11-16T17:57:00.666Z,68.21
2022-11-16T17:59:29.756Z,67.92
2022-11-16T18:01:58.075Z,68.08
2022-11-16T18:04:24.945Z,67.91
2022-11-16T18:06:51.589Z,68.54
2022-11-16T18:09:18.938Z,68.61
2022-11-16T18:11:45.816Z,68.87
2022-11-16T18:14:12.455Z,68.31
2022-11-16T18:16:42.398Z,67.94
2022-11-16T18:19:10.084Z,69.39
2022-11-16T18:21:40.788Z,69.58
2022-11-16T18:24:08.570Z,69.02
2022-11-16T18:26:35.194Z,68.29
2022-11-16T18:29:01.891Z,68.63
2022-11-16T18:31:29.839Z,68.25
2022-11-16T18:33:56.662Z,68.42
2022-11-16T18:36:23.284Z,68.16
2022-11-16T18:38:50.149Z,68.65
2022-11-16T18:41:20.036Z,68.60
2022-11-16T18:43:58.265Z,68.61
2022-11-16T18:46:27.978Z,69.52
2022-11-16T18:48:55.469Z,70.62
2022-11-16T18:51:23.832Z,69.48
2022-11-16T18:53:50.717Z,68.83
2022-11-16T18:56:17.839Z,69.03
2022-11-16T18:58:52.915Z,68.59
2022-11-16T19:01:22.705Z,68.19
2022-11-16T19:03:49.756Z,68.42
2022-11-16T19:06:17.894Z,69.29
2022-11-16T19:08:49.011Z,69.41
2022-11-16T19:11:20.477Z,68.90
2022-11-16T19:13:53.335Z,68.99
2022-11-16T19:16:19.940Z,70.63
2022-11-16T19:18:46.517Z,69.86
2022-11-16T19:21:15.383Z,69.58
2022-11-16T19:23:44.567Z,70.88
2022-11-16T19:26:13.153Z,70.57
2022-11-16T19:28:42.134Z,70.24
2022-11-16T19:31:09.839Z,69.45
2022-11-16T19:33:37.349Z,68.83
2022-11-16T19:36:16.252Z,68.73
2022-11-16T19:38:43.340Z,68.55
2022-11-16T19:41:11.992Z,69.34
2022-11-16T19:43:38.907Z,69.26
2022-11-16T19:46:08.338Z,69.24
2022-11-16T19:48:35.498Z,68.60
2022-11-16T19:51:09.158Z,68.81
2022-11-16T19:53:36.836Z,68.68
2022-11-16T19:56:04.501Z,68.46
2022-11-16T19:58:32.140Z,67.81
2022-11-16T20:01:06.310Z,67.56
2022-11-16T20:03:34.101Z,67.38
2022-11-16T20:06:16.068Z,67.68
2022-11-16T20:08:46.504Z,67.38
2022-11-16T20:11:15.299Z,67.21
2022-11-16T20:13:42.670Z,67.29
2022-11-16T20:16:11.177Z,67.63
2022-11-16T20:18:39.392Z,68.33
2022-11-16T20:21:06.871Z,67.84
2022-11-16T20:23:35.168Z,67.54
2022-11-16T20:26:06.248Z,67.42
2022-11-16T20:28:37.396Z,67.12
2022-11-16T20:31:08.120Z,67.32
2022-11-16T20:33:35.135Z,67.29
2022-11-16T20:36:07.687Z,66.91
2022-11-16T20:38:35.688Z,67.87
2022-11-16T20:41:16.336Z,67.34
2022-11-16T20:43:44.039Z,67.23
2022-11-16T20:46:15.705Z,66.91
2022-11-16T20:48:43.247Z,66.64
2022-11-16T20:51:15.267Z,67.09
2022-11-16T20:53:41.846Z,66.51
2022-11-16T20:56:10.530Z,66.49
2022-11-16T20:58:37.800Z,66.84
2022-11-16T21:01:07.124Z,66.73
2022-11-16T21:03:34.263Z,66.39
2022-11-16T21:06:01.477Z,66.46
2022-11-16T21:08:29.693Z,66.09
2022-11-16T21:10:56.912Z,66.27
2022-11-16T21:13:42.222Z,66.06
2022-11-16T21:16:15.154Z,66.32
2022-11-16T21:18:42.230Z,65.42
2022-11-16T21:21:13.726Z,66.00
2022-11-16T21:23:51.332Z,66.14
2022-11-16T21:26:26.290Z,66.44
2022-11-16T21:28:53.669Z,65.67
2022-11-16T21:31:25.513Z,66.05
2022-11-16T21:33:53.099Z,65.97
2022-11-16T21:36:21.969Z,66.14
2022-11-16T21:38:48.907Z,66.37
2022-11-16T21:41:17.106Z,66.51
2022-11-16T21:43:44.304Z,65.86
2022-11-16T21:46:15.802Z,65.53
2022-11-16T21:48:42.703Z,66.42
2022-11-16T21:51:11.809Z,66.66
2022-11-16T21:53:38.871Z,66.52
2022-11-16T21:56:07.297Z,66.59
2022-11-16T21:58:34.182Z,65.96
2022-11-16T22:01:02.144Z,65.64
2022-11-16T22:03:31.538Z,66.31
2022-11-16T22:06:18.990Z,66.77
2022-11-16T22:08:46.833Z,67.54
2022-11-16T22:11:14.559Z,67.98
2022-11-16T22:13:41.455Z,67.82
2022-11-16T22:16:10.784Z,67.19
2022-11-16T22:18:37.729Z,67.32
2022-11-16T22:21:05.367Z,67.65
2022-11-16T22:23:32.469Z,67.22
2022-11-16T22:26:10.357Z,67.45
2022-11-16T22:28:37.569Z,67.25
2022-11-16T22:31:12.863Z,67.86
2022-11-16T22:33:40.237Z,67.26
2022-11-16T22:36:09.360Z,67.33
2022-11-16T22:38:36.654Z,67.80
2022-11-16T22:41:03.839Z,67.74
2022-11-16T22:43:31.725Z,67.76
2022-11-16T22:46:00.000Z,67.64
2022-11-16T22:48:37.273Z,67.68
2022-11-16T22:51:27.990Z,68.59
2022-11-16T22:54:00.272Z,68.09
2022-11-16T22:56:28.144Z,67.84
2022-11-16T22:58:55.864Z,67.79
2022-11-16T23:01:23.256Z,67.81
2022-11-16T23:03:50.553Z,67.79
2022-11-16T23:06:17.584Z,67.80
2022-11-16T23:08:44.497Z,68.91
2022-11-16T23:11:32.583Z,69.55
2022-11-16T23:14:18.341Z,70.21
2022-11-16T23:16:45.416Z,70.35
2022-11-16T23:19:32.966Z,69.62
2022-11-16T23:22:18.509Z,70.11
2022-11-16T23:25:04.201Z,69.37
2022-11-16T23:28:19.971Z,68.92
2022-11-16T23:30:46.540Z,69.04
2022-11-16T23:33:13.267Z,68.79
2022-11-16T23:35:39.842Z,69.04
2022-11-16T23:38:07.533Z,70.28
2022-11-16T23:40:37.199Z,70.28
2022-11-16T23:43:43.152Z,69.24
2022-11-16T23:46:09.708Z,69.44
2022-11-16T23:48:36.279Z,69.91
2022-11-16T23:51:02.865Z,70.43
2022-11-16T23:53:29.446Z,70.22
2022-11-16T23:56:05.766Z,69.69
2022-11-16T23:58:32.850Z,69.24
